Time;durP1;ratioP1;P1;durP2;ratioP2;P2;SDS_P1;SDS_P2;PMS_P1;PMS_P2;Temp;Humidity;BMP_temperature;BMP_pressure;BME280_temperature;BME280_humidity;BME280_pressure;Samples;Min_cycle;Max_cycle;Signal;HPM_P1;HPM_P2
2023/06/17 00:00:15;;;;;;;8.57;6.47;;;17.20;12.40;;;;;;5021212;28;20479;-68
2023/06/17 00:02:42;;;;;;;12.80;6.77;;;17.20;12.80;;;;;;5019636;28;20932;-69
2023/06/17 00:05:10;;;;;;;8.90;6.20;;;17.20;13.40;;;;;;5021400;28;20467;-69
2023/06/17 00:07:36;;;;;;;9.90;6.80;;;17.10;13.50;;;;;;5021937;28;20463;-68
2023/06/17 00:10:05;;;;;;;11.83;6.97;;;17.10;13.60;;;;;;5024605;28;20459;-69
2023/06/17 00:12:33;;;;;;;8.50;5.63;;;17.10;13.70;;;;;;5021630;28;20483;-68
2023/06/17 00:15:01;;;;;;;9.50;6.10;;;17.00;14.00;;;;;;5023664;28;20513;-69
2023/06/17 00:17:30;;;;;;;10.53;6.93;;;16.90;14.30;;;;;;5022151;28;20459;-69
2023/06/17 00:19:56;;;;;;;10.20;7.23;;;16.80;14.30;;;;;;5024404;28;20956;-69
2023/06/17 00:22:24;;;;;;;9.67;6.63;;;16.70;14.60;;;;;;5019612;28;22529;-69
2023/06/17 00:24:51;;;;;;;9.73;6.50;;;16.70;14.40;;;;;;5024348;28;20479;-69
2023/06/17 00:27:19;;;;;;;9.30;6.50;;;16.70;14.50;;;;;;5026665;28;20462;-68
2023/06/17 00:29:46;;;;;;;11.80;7.30;;;16.60;14.80;;;;;;5024724;28;20966;-69
2023/06/17 00:32:12;;;;;;;10.37;6.80;;;16.60;14.70;;;;;;5023945;28;20491;-69
2023/06/17 00:34:39;;;;;;;11.07;6.60;;;16.60;15.00;;;;;;5024041;28;20471;-69
2023/06/17 00:37:06;;;;;;;9.03;6.70;;;16.50;15.70;;;;;;5025547;28;20467;-69
2023/06/17 00:39:33;;;;;;;11.93;7.50;;;16.50;15.30;;;;;;5020886;28;20483;-69
2023/06/17 00:42:01;;;;;;;9.20;7.00;;;16.50;15.40;;;;;;5023037;28;20486;-69
2023/06/17 00:44:29;;;;;;;14.10;8.10;;;16.50;15.90;;;;;;5018592;28;20999;-68
2023/06/17 00:46:57;;;;;;;11.50;7.10;;;16.40;16.50;;;;;;5024819;28;20463;-68
2023/06/17 00:49:33;;;;;;;14.63;7.10;;;16.40;16.10;;;;;;5021472;28;20470;-69
2023/06/17 00:52:04;;;;;;;15.83;8.20;;;16.40;16.20;;;;;;5025200;28;20491;-69
2023/06/17 00:54:31;;;;;;;10.07;7.07;;;16.50;16.20;;;;;;5017744;28;21008;-69
2023/06/17 00:57:01;;;;;;;11.20;8.07;;;16.40;16.10;;;;;;5022186;28;20490;-69
2023/06/17 00:59:31;;;;;;;13.43;7.83;;;16.40;16.60;;;;;;5023612;28;20501;-69
2023/06/17 01:01:57;;;;;;;11.77;7.47;;;16.40;16.70;;;;;;5021780;28;20482;-69
2023/06/17 01:04:25;;;;;;;9.50;7.20;;;16.40;16.80;;;;;;5019309;28;20482;-69
2023/06/17 01:07:00;;;;;;;11.23;8.10;;;16.30;16.90;;;;;;5022059;28;20474;-69
2023/06/17 01:09:32;;;;;;;12.33;8.10;;;16.30;16.90;;;;;;5017364;28;21506;-68
2023/06/17 01:12:00;;;;;;;13.90;7.73;;;16.30;17.00;;;;;;5024151;28;21119;-68
2023/06/17 01:14:30;;;;;;;11.50;7.90;;;16.20;16.70;;;;;;5025250;28;20463;-68
2023/06/17 01:16:57;;;;;;;12.03;7.90;;;16.30;16.70;;;;;;5020105;28;20557;-69
2023/06/17 01:19:25;;;;;;;13.00;7.73;;;16.20;16.70;;;;;;5024706;28;20467;-69
2023/06/17 01:21:53;;;;;;;13.03;7.30;;;16.20;16.50;;;;;;5024126;28;20486;-69
2023/06/17 01:24:27;;;;;;;12.17;7.03;;;16.20;16.60;;;;;;5024335;28;20852;-68
2023/06/17 01:26:56;;;;;;;11.53;7.87;;;16.20;16.70;;;;;;5023359;28;20521;-69
2023/06/17 01:29:23;;;;;;;10.20;7.93;;;16.20;16.80;;;;;;5019030;28;20470;-69
2023/06/17 01:31:51;;;;;;;11.13;7.20;;;16.20;16.80;;;;;;5027380;28;20487;-69
2023/06/17 01:34:20;;;;;;;11.50;7.70;;;16.20;16.40;;;;;;5020713;28;20462;-69
2023/06/17 01:36:48;;;;;;;9.63;6.27;;;16.10;16.50;;;;;;5019331;28;20471;-67
2023/06/17 01:39:18;;;;;;;10.93;6.60;;;16.20;16.30;;;;;;5027970;28;20469;-68
2023/06/17 01:41:50;;;;;;;11.90;7.77;;;16.10;16.20;;;;;;5021392;28;20562;-69
2023/06/17 01:44:17;;;;;;;11.70;7.60;;;16.10;16.00;;;;;;5017658;28;20483;-68
2023/06/17 01:46:44;;;;;;;11.57;7.70;;;16.10;16.00;;;;;;5022626;28;21720;-68
2023/06/17 01:49:10;;;;;;;10.30;6.70;;;16.10;15.90;;;;;;5025759;28;20529;-69
2023/06/17 01:51:37;;;;;;;10.93;8.00;;;16.10;15.70;;;;;;5026426;28;20463;-69
2023/06/17 01:54:04;;;;;;;13.10;10.00;;;16.10;15.70;;;;;;5030569;28;20470;-68
2023/06/17 01:56:32;;;;;;;10.13;7.50;;;16.00;15.80;;;;;;5023395;28;20544;-68
2023/06/17 01:59:00;;;;;;;11.27;7.03;;;16.00;16.30;;;;;;5025849;28;20459;-69
2023/06/17 02:01:26;;;;;;;13.40;8.20;;;15.90;16.20;;;;;;5023636;28;20846;-69
2023/06/17 02:03:53;;;;;;;10.20;7.40;;;15.90;16.10;;;;;;5027589;28;20486;-70
2023/06/17 02:06:20;;;;;;;12.33;8.13;;;15.80;16.40;;;;;;5023392;28;20487;-68
2023/06/17 02:08:47;;;;;;;12.83;8.00;;;15.70;16.70;;;;;;5022719;28;20471;-69
2023/06/17 02:11:14;;;;;;;12.93;7.77;;;15.70;16.90;;;;;;5026641;28;20958;-69
2023/06/17 02:13:41;;;;;;;10.50;7.70;;;15.60;17.10;;;;;;5019686;28;21066;-68
2023/06/17 02:16:09;;;;;;;11.27;8.07;;;15.60;17.40;;;;;;5024393;28;20481;-69
2023/06/17 02:18:36;;;;;;;13.53;8.43;;;15.50;17.40;;;;;;5025037;28;20463;-69
2023/06/17 02:21:04;;;;;;;12.90;9.37;;;15.40;17.60;;;;;;5024153;28;20516;-69
2023/06/17 02:23:30;;;;;;;11.60;7.90;;;15.40;17.80;;;;;;5028965;28;20487;-69
2023/06/17 02:25:57;;;;;;;12.30;9.13;;;15.30;18.00;;;;;;5027679;28;20475;-69
2023/06/17 02:28:24;;;;;;;16.80;9.00;;;15.30;17.90;;;;;;5021294;28;20955;-69
2023/06/17 02:30:51;;;;;;;11.10;8.80;;;15.20;18.20;;;;;;5023802;28;20478;-69
2023/06/17 02:33:19;;;;;;;10.50;7.30;;;15.20;18.60;;;;;;5029841;28;20478;-68
2023/06/17 02:35:46;;;;;;;16.97;8.60;;;15.20;18.30;;;;;;5020639;28;21110;-69
2023/06/17 02:38:13;;;;;;;10.93;8.20;;;15.20;18.40;;;;;;5023284;28;20475;-68
2023/06/17 02:40:40;;;;;;;13.07;8.07;;;15.20;18.60;;;;;;5027156;28;21017;-68
2023/06/17 02:43:07;;;;;;;13.10;8.80;;;15.10;18.70;;;;;;5025203;28;20514;-69
2023/06/17 02:45:34;;;;;;;13.10;8.90;;;15.10;18.50;;;;;;5019378;28;20996;-69
2023/06/17 02:48:02;;;;;;;12.33;8.30;;;15.10;18.60;;;;;;5026831;28;20476;-69
2023/06/17 02:50:30;;;;;;;12.93;7.60;;;15.10;18.90;;;;;;5025336;28;20513;-69
2023/06/17 02:52:57;;;;;;;14.00;7.77;;;15.00;19.30;;;;;;5026817;28;20490;-69
2023/06/17 02:55:25;;;;;;;14.20;8.20;;;15.00;19.40;;;;;;5021672;28;20462;-69
2023/06/17 02:57:51;;;;;;;11.57;8.33;;;15.00;19.50;;;;;;5026519;28;20477;-69
2023/06/17 03:00:18;;;;;;;14.73;10.13;;;14.90;19.40;;;;;;5021834;28;20467;-69
2023/06/17 03:02:45;;;;;;;13.43;9.10;;;15.00;19.40;;;;;;5026367;28;20525;-69
2023/06/17 03:05:12;;;;;;;12.77;9.30;;;14.90;19.60;;;;;;5025707;28;20483;-69
2023/06/17 03:07:40;;;;;;;11.50;7.93;;;14.90;19.60;;;;;;5019091;28;20502;-69
2023/06/17 03:10:08;;;;;;;12.53;9.13;;;14.90;19.50;;;;;;5022851;28;20999;-69
2023/06/17 03:12:35;;;;;;;12.70;9.37;;;14.90;19.60;;;;;;5026262;28;20517;-69
2023/06/17 03:15:02;;;;;;;12.73;9.83;;;14.90;19.60;;;;;;5023751;28;20471;-69
2023/06/17 03:17:29;;;;;;;12.87;10.20;;;14.90;19.60;;;;;;5024086;28;20459;-69
2023/06/17 03:19:59;;;;;;;12.77;9.20;;;14.90;19.50;;;;;;5026722;28;20459;-69
2023/06/17 03:22:25;;;;;;;13.40;9.20;;;14.90;19.60;;;;;;5024097;28;20479;-69
2023/06/17 03:24:53;;;;;;;13.70;9.97;;;14.90;20.20;;;;;;5021223;28;20486;-69
2023/06/17 03:27:20;;;;;;;12.70;9.17;;;14.80;19.90;;;;;;5024672;28;20462;-69
2023/06/17 03:29:48;;;;;;;12.07;9.17;;;14.80;19.90;;;;;;5022728;28;20870;-69
2023/06/17 03:32:15;;;;;;;17.10;10.03;;;14.80;19.70;;;;;;5024137;28;20487;-69
2023/06/17 03:34:42;;;;;;;12.40;8.97;;;14.80;19.80;;;;;;5024814;28;20957;-69
2023/06/17 03:37:09;;;;;;;12.17;9.30;;;14.90;19.60;;;;;;5026303;28;21204;-69
2023/06/17 03:39:36;;;;;;;12.20;9.47;;;14.90;19.60;;;;;;5024187;28;20462;-69
2023/06/17 03:42:05;;;;;;;12.90;9.57;;;14.90;19.40;;;;;;5024892;28;20483;-69
2023/06/17 03:44:31;;;;;;;11.37;9.40;;;15.00;19.50;;;;;;5024457;28;20505;-69
2023/06/17 03:46:59;;;;;;;16.13;10.60;;;15.00;19.50;;;;;;5025279;28;20467;-69
2023/06/17 03:49:26;;;;;;;13.87;10.03;;;14.90;19.80;;;;;;5025848;28;20526;-69
2023/06/17 03:51:52;;;;;;;13.90;10.57;;;14.90;19.70;;;;;;5026295;28;20513;-69
2023/06/17 03:54:19;;;;;;;12.37;10.03;;;14.90;19.70;;;;;;5021174;28;20466;-68
2023/06/17 03:56:46;;;;;;;12.80;10.63;;;15.00;19.60;;;;;;5020683;28;20474;-69
2023/06/17 03:59:15;;;;;;;14.27;10.20;;;15.00;19.70;;;;;;5023816;28;20477;-69
2023/06/17 04:01:42;;;;;;;15.40;11.03;;;15.00;19.90;;;;;;5020026;28;20664;-69
2023/06/17 04:04:09;;;;;;;14.33;10.63;;;14.90;20.00;;;;;;5022450;28;20515;-69
2023/06/17 04:06:36;;;;;;;12.90;10.23;;;15.00;19.90;;;;;;5021500;28;20539;-69
2023/06/17 04:09:03;;;;;;;15.33;12.00;;;15.00;20.00;;;;;;5019450;28;20470;-69
2023/06/17 04:11:32;;;;;;;12.33;9.63;;;15.00;20.00;;;;;;5025571;28;20817;-69
2023/06/17 04:13:59;;;;;;;12.03;10.10;;;15.00;20.00;;;;;;5023635;28;20555;-69
2023/06/17 04:16:30;;;;;;;14.70;11.40;;;15.00;19.80;;;;;;5023092;28;20506;-69
2023/06/17 04:18:57;;;;;;;15.23;10.20;;;15.00;19.90;;;;;;5024242;28;20467;-69
2023/06/17 04:21:24;;;;;;;13.13;10.33;;;15.00;19.90;;;;;;5024190;28;20466;-69
2023/06/17 04:23:51;;;;;;;12.10;10.63;;;15.10;19.80;;;;;;5020600;28;20937;-69
2023/06/17 04:26:18;;;;;;;13.30;10.73;;;15.10;19.90;;;;;;5023732;28;20570;-69
2023/06/17 04:28:46;;;;;;;17.87;12.07;;;15.10;19.90;;;;;;5022262;28;20559;-69
2023/06/17 04:31:12;;;;;;;14.63;11.70;;;15.20;20.00;;;;;;5025026;28;20605;-69
2023/06/17 04:33:41;;;;;;;15.00;10.97;;;15.30;19.80;;;;;;5021748;28;20483;-69
2023/06/17 04:36:09;;;;;;;14.73;11.53;;;15.30;19.90;;;;;;5021192;28;20922;-69
2023/06/17 04:38:36;;;;;;;16.43;11.47;;;15.40;19.70;;;;;;5022438;28;20463;-69
2023/06/17 04:41:04;;;;;;;14.80;11.40;;;15.50;19.40;;;;;;5023820;28;20480;-69
2023/06/17 04:43:33;;;;;;;14.07;11.53;;;15.50;19.60;;;;;;5024449;28;20560;-69
2023/06/17 04:46:00;;;;;;;13.27;10.00;;;15.70;19.50;;;;;;5013816;28;21084;-69
2023/06/17 04:48:28;;;;;;;15.23;11.20;;;15.80;19.20;;;;;;5020501;28;20574;-69
2023/06/17 04:50:56;;;;;;;15.50;11.90;;;15.90;19.10;;;;;;5021816;28;20459;-69
2023/06/17 04:53:23;;;;;;;13.77;11.00;;;15.90;19.20;;;;;;5022380;28;20482;-69
2023/06/17 04:55:50;;;;;;;13.80;11.50;;;16.00;19.30;;;;;;5021937;28;20462;-69
2023/06/17 04:58:17;;;;;;;17.17;11.33;;;16.00;19.30;;;;;;5020637;28;20507;-69
2023/06/17 05:00:44;;;;;;;15.80;11.70;;;16.10;19.30;;;;;;5022774;28;20478;-69
2023/06/17 05:03:11;;;;;;;13.43;11.40;;;16.20;19.20;;;;;;5016580;28;20492;-69
2023/06/17 05:05:38;;;;;;;14.97;12.27;;;16.20;19.10;;;;;;5023216;28;20490;-69
2023/06/17 05:08:06;;;;;;;15.63;11.40;;;16.30;18.90;;;;;;5019999;28;21095;-69
2023/06/17 05:10:33;;;;;;;15.47;11.30;;;16.60;18.60;;;;;;5019141;28;20517;-69
2023/06/17 05:13:00;;;;;;;20.00;10.53;;;16.80;18.10;;;;;;5022027;28;20483;-69
2023/06/17 05:15:27;;;;;;;19.63;11.23;;;17.00;17.90;;;;;;5018883;28;20463;-69
2023/06/17 05:17:53;;;;;;;15.60;10.97;;;18.50;16.50;;;;;;5017106;28;20464;-69
2023/06/17 05:20:20;;;;;;;13.13;10.33;;;20.60;12.30;;;;;;5020947;28;20463;-69
2023/06/17 05:22:47;;;;;;;11.13;8.80;;;22.80;7.50;;;;;;5021749;28;20478;-69
2023/06/17 05:25:15;;;;;;;14.63;9.57;;;24.70;3.70;;;;;;5023992;28;20483;-70
2023/06/17 05:27:42;;;;;;;13.33;8.70;;;26.20;1.00;;;;;;5022379;28;20468;-70
2023/06/17 05:30:09;;;;;;;10.70;8.63;;;27.50;1.00;;;;;;5026081;28;20466;-69
2023/06/17 05:32:36;;;;;;;12.60;8.87;;;28.60;1.00;;;;;;5026378;28;20583;-69
2023/06/17 05:35:03;;;;;;;13.50;8.00;;;29.70;1.00;;;;;;5026988;28;20467;-70
2023/06/17 05:37:30;;;;;;;10.07;7.57;;;30.60;1.00;;;;;;5023227;28;20902;-70
2023/06/17 05:39:57;;;;;;;10.20;8.27;;;31.50;1.00;;;;;;5021591;28;20472;-70
2023/06/17 05:42:25;;;;;;;10.30;8.33;;;32.30;1.00;;;;;;5024252;28;20509;-70
2023/06/17 05:44:52;;;;;;;12.50;8.80;;;33.00;1.00;;;;;;5023338;28;20487;-70
2023/06/17 05:47:18;;;;;;;9.53;7.63;;;33.70;1.00;;;;;;5023383;28;20471;-70
2023/06/17 05:49:45;;;;;;;12.10;7.70;;;34.40;1.00;;;;;;5020771;28;20464;-70
2023/06/17 05:52:12;;;;;;;8.33;7.03;;;35.10;1.00;;;;;;5027256;28;20478;-70
2023/06/17 05:54:39;;;;;;;12.03;7.27;;;35.60;1.00;;;;;;5025179;28;20474;-70
2023/06/17 05:57:05;;;;;;;9.90;7.17;;;36.30;1.00;;;;;;5021869;28;20482;-70
2023/06/17 05:59:33;;;;;;;8.27;7.37;;;36.90;1.00;;;;;;5025615;28;20466;-70
2023/06/17 06:02:00;;;;;;;11.80;8.13;;;37.50;1.00;;;;;;5022616;28;20479;-70
2023/06/17 06:04:27;;;;;;;9.50;7.10;;;37.90;1.00;;;;;;5016671;28;20458;-70
2023/06/17 06:06:54;;;;;;;7.90;6.90;;;38.20;1.00;;;;;;5020659;28;20494;-70
2023/06/17 06:09:21;;;;;;;8.60;7.50;;;38.90;1.00;;;;;;5024824;28;20466;-70
2023/06/17 06:11:48;;;;;;;8.30;7.50;;;39.20;1.00;;;;;;5023677;28;20479;-70
2023/06/17 06:14:15;;;;;;;8.00;6.70;;;39.20;1.00;;;;;;5023147;28;20495;-70
2023/06/17 06:16:43;;;;;;;12.30;7.97;;;39.80;1.00;;;;;;5023527;28;20467;-71
2023/06/17 06:19:09;;;;;;;11.00;6.97;;;40.40;1.00;;;;;;5022614;28;20470;-70
2023/06/17 06:21:36;;;;;;;11.63;6.87;;;40.00;1.00;;;;;;5024272;28;20831;-70
2023/06/17 06:24:03;;;;;;;8.60;6.50;;;40.50;1.00;;;;;;5024639;28;20463;-70
2023/06/17 06:26:30;;;;;;;9.13;6.93;;;41.30;1.00;;;;;;5027697;28;20482;-70
2023/06/17 06:28:56;;;;;;;8.63;6.83;;;42.10;1.00;;;;;;5024526;28;20463;-70
2023/06/17 06:31:23;;;;;;;10.53;6.60;;;42.80;1.00;;;;;;5023670;28;20483;-70
2023/06/17 06:33:51;;;;;;;7.80;6.63;;;43.30;1.00;;;;;;5021995;28;21017;-70
2023/06/17 06:36:18;;;;;;;15.03;6.83;;;43.70;1.00;;;;;;5026610;28;20467;-71
2023/06/17 06:38:44;;;;;;;8.87;6.47;;;44.20;1.00;;;;;;5024169;28;20466;-71
2023/06/17 06:41:11;;;;;;;7.70;6.60;;;44.80;1.00;;;;;;5027693;28;20504;-71
2023/06/17 06:43:38;;;;;;;7.83;6.17;;;45.20;1.00;;;;;;5026798;28;20486;-71
2023/06/17 06:46:04;;;;;;;7.17;6.47;;;45.70;1.00;;;;;;5024269;28;20487;-68
2023/06/17 06:48:31;;;;;;;7.20;6.27;;;46.10;1.00;;;;;;5024921;28;20451;-70
2023/06/17 06:51:01;;;;;;;9.43;6.57;;;46.40;1.00;;;;;;5022897;28;20518;-69
2023/06/17 06:53:28;;;;;;;7.07;6.23;;;46.70;1.00;;;;;;5026258;28;20983;-70
2023/06/17 06:55:55;;;;;;;7.10;6.37;;;46.90;1.00;;;;;;5024792;28;20469;-70
2023/06/17 06:58:22;;;;;;;8.23;5.90;;;47.20;1.00;;;;;;5020151;28;20532;-69
2023/06/17 07:00:48;;;;;;;8.67;6.17;;;47.40;1.00;;;;;;5020742;28;20480;-70
2023/06/17 07:03:15;;;;;;;8.03;6.10;;;47.90;1.00;;;;;;5026116;28;20487;-70
2023/06/17 07:05:42;;;;;;;8.13;6.33;;;48.00;1.00;;;;;;5024076;28;20470;-70
2023/06/17 07:08:10;;;;;;;6.70;5.97;;;48.20;1.00;;;;;;5024092;28;20482;-70
2023/06/17 07:10:39;;;;;;;9.53;7.03;;;48.60;1.00;;;;;;5027199;28;20481;-70
2023/06/17 07:13:06;;;;;;;8.07;6.80;;;48.80;1.00;;;;;;5021166;28;20494;-70
2023/06/17 07:15:32;;;;;;;7.77;6.60;;;49.00;1.00;;;;;;5024898;28;20462;-70
2023/06/17 07:17:59;;;;;;;7.80;6.70;;;49.30;1.00;;;;;;5022794;28;20459;-70
2023/06/17 07:20:26;;;;;;;8.20;6.80;;;49.70;1.00;;;;;;5022133;28;20469;-70
2023/06/17 07:22:52;;;;;;;10.77;6.83;;;50.00;1.00;;;;;;5022553;28;20475;-70
2023/06/17 07:25:20;;;;;;;6.77;6.07;;;50.20;1.00;;;;;;5025703;28;20492;-70
2023/06/17 07:27:47;;;;;;;9.50;6.60;;;50.60;1.00;;;;;;5026962;28;20494;-70
2023/06/17 07:30:14;;;;;;;8.07;6.27;;;50.70;1.00;;;;;;5024935;28;20469;-70
2023/06/17 07:32:41;;;;;;;7.40;6.10;;;51.20;1.00;;;;;;5022150;28;20498;-70
2023/06/17 07:35:08;;;;;;;8.40;6.13;;;51.70;1.00;;;;;;5020741;28;20952;-70
2023/06/17 07:37:35;;;;;;;7.10;5.80;;;52.00;1.00;;;;;;5024378;28;20477;-70
2023/06/17 07:40:04;;;;;;;9.27;5.97;;;52.40;1.00;;;;;;5022073;28;20585;-70
2023/06/17 07:42:32;;;;;;;6.27;5.60;;;52.80;1.00;;;;;;5021426;28;20573;-70
2023/06/17 07:44:59;;;;;;;6.30;5.67;;;53.10;1.00;;;;;;5022105;28;20462;-70
2023/06/17 07:47:26;;;;;;;9.57;5.50;;;53.50;1.00;;;;;;5028003;28;20517;-70
2023/06/17 07:49:53;;;;;;;6.63;5.97;;;53.70;1.00;;;;;;5024367;28;20899;-70
2023/06/17 07:52:19;;;;;;;6.60;5.50;;;54.00;1.00;;;;;;5021034;28;20843;-69
2023/06/17 07:54:47;;;;;;;6.23;5.50;;;54.20;1.00;;;;;;5021805;28;20498;-70
2023/06/17 07:57:14;;;;;;;5.77;5.17;;;54.60;1.00;;;;;;5017483;28;20467;-70
2023/06/17 07:59:43;;;;;;;8.37;5.70;;;54.90;1.00;;;;;;5018845;28;20460;-71
2023/06/17 08:02:10;;;;;;;6.27;5.60;;;55.10;1.00;;;;;;5021714;28;20484;-70
2023/06/17 08:04:37;;;;;;;7.80;5.30;;;55.40;1.00;;;;;;5020043;28;20954;-71
2023/06/17 08:07:05;;;;;;;8.30;5.43;;;55.60;1.00;;;;;;5019099;28;20474;-71
2023/06/17 08:09:32;;;;;;;7.77;5.87;;;55.80;1.00;;;;;;5015689;28;20210;-71
2023/06/17 08:11:59;;;;;;;5.53;4.93;;;56.20;1.00;;;;;;5022383;28;20220;-71
2023/06/17 08:14:25;;;;;;;8.30;5.53;;;56.40;1.00;;;;;;5022951;28;20211;-71
2023/06/17 08:16:53;;;;;;;23.48;18.27;;;56.70;1.00;;;;;;5018556;28;20200;-71
2023/06/17 08:19:21;;;;;;;6.80;5.45;;;56.70;1.00;;;;;;5017774;28;20200;-71
2023/06/17 08:21:49;;;;;;;7.10;5.88;;;56.90;1.00;;;;;;5017638;28;20224;-71
2023/06/17 08:24:20;;;;;;;6.00;5.07;;;57.20;1.00;;;;;;5015504;28;21099;-71
2023/06/17 08:26:47;;;;;;;6.40;4.63;;;57.50;1.00;;;;;;5020461;28;20216;-71
2023/06/17 08:29:15;;;;;;;7.45;5.30;;;57.50;1.00;;;;;;5018799;28;20711;-71
2023/06/17 08:31:42;;;;;;;5.95;4.75;;;57.50;1.00;;;;;;5020347;28;20223;-71
2023/06/17 08:34:11;;;;;;;7.35;4.68;;;57.40;1.00;;;;;;5015515;28;20200;-71
2023/06/17 08:36:39;;;;;;;6.07;4.55;;;57.60;1.00;;;;;;5020949;28;20218;-71
2023/06/17 08:39:06;;;;;;;5.60;4.65;;;57.50;1.00;;;;;;5019651;28;20222;-71
2023/06/17 08:41:37;;;;;;;6.00;4.72;;;57.80;1.00;;;;;;5020016;28;20207;-71
2023/06/17 08:44:05;;;;;;;18.52;6.57;;;58.00;1.00;;;;;;5024318;28;20207;-71
2023/06/17 08:46:32;;;;;;;8.55;6.15;;;57.80;1.00;;;;;;5008935;28;20231;-71
2023/06/17 08:48:59;;;;;;;16.13;5.50;;;57.80;1.00;;;;;;5019043;28;20242;-71
2023/06/17 08:51:28;;;;;;;6.15;4.30;;;57.80;1.00;;;;;;5017581;28;20214;-71
2023/06/17 08:53:56;;;;;;;5.47;4.10;;;57.70;1.00;;;;;;5020000;28;20212;-71
2023/06/17 08:56:23;;;;;;;5.60;3.78;;;57.60;1.00;;;;;;5014480;28;20200;-71
2023/06/17 08:58:53;;;;;;;12.65;5.43;;;57.30;1.00;;;;;;5022921;28;20208;-71
2023/06/17 09:01:20;;;;;;;7.28;4.40;;;57.40;1.00;;;;;;5028571;28;20297;-71
2023/06/17 09:03:50;;;;;;;7.57;4.38;;;57.10;1.00;;;;;;5029668;28;20603;-71
2023/06/17 09:06:20;;;;;;;7.03;4.20;;;56.20;1.00;;;;;;5024659;28;20238;-71
2023/06/17 09:08:48;;;;;;;5.63;4.43;;;53.80;1.00;;;;;;5023891;28;20206;-71
2023/06/17 09:11:15;;;;;;;7.13;4.30;;;51.30;1.00;;;;;;5025938;28;20468;-71
2023/06/17 09:13:42;;;;;;;5.60;4.53;;;50.40;1.00;;;;;;5026361;28;20501;-71
2023/06/17 09:16:08;;;;;;;6.40;5.00;;;49.90;1.00;;;;;;5027633;28;20473;-70
2023/06/17 09:18:36;;;;;;;13.93;5.00;;;50.10;1.00;;;;;;5026398;28;20462;-70
2023/06/17 09:21:03;;;;;;;9.07;4.60;;;50.20;1.00;;;;;;5025159;28;20466;-70
2023/06/17 09:23:30;;;;;;;9.20;4.57;;;49.40;1.00;;;;;;5020965;28;20482;-71
2023/06/17 09:26:05;;;;;;;6.20;4.90;;;47.80;1.00;;;;;;5026685;28;20467;-71
2023/06/17 09:28:32;;;;;;;10.20;4.73;;;45.60;1.00;;;;;;5025776;28;20493;-70
2023/06/17 09:31:04;;;;;;;8.70;5.10;;;43.40;1.00;;;;;;5023782;28;20475;-71
2023/06/17 09:33:30;;;;;;;7.33;5.30;;;41.70;1.00;;;;;;5022232;28;20589;-70
2023/06/17 09:36:01;;;;;;;6.97;5.40;;;40.10;1.00;;;;;;5023184;28;20474;-70
2023/06/17 09:38:28;;;;;;;9.40;5.10;;;38.70;1.00;;;;;;5025422;28;20476;-70
2023/06/17 09:40:55;;;;;;;7.23;4.97;;;37.40;1.00;;;;;;5024769;28;20552;-71
2023/06/17 09:43:26;;;;;;;9.63;4.97;;;36.30;1.00;;;;;;5026162;28;20482;-70
2023/06/17 09:45:59;;;;;;;7.60;6.03;;;35.30;1.00;;;;;;5025850;28;20491;-70
2023/06/17 09:48:30;;;;;;;16.13;5.90;;;34.50;1.00;;;;;;5022158;28;20498;-70
2023/06/17 09:50:57;;;;;;;8.40;5.93;;;33.90;1.00;;;;;;5027190;28;20465;-70
2023/06/17 09:53:27;;;;;;;7.43;5.27;;;33.50;1.00;;;;;;5024113;28;20475;-70
2023/06/17 09:55:56;;;;;;;8.90;5.30;;;33.30;1.00;;;;;;5024832;28;20497;-70
2023/06/17 09:58:26;;;;;;;8.10;5.33;;;33.00;1.00;;;;;;5021854;28;20974;-70
2023/06/17 10:00:53;;;;;;;8.60;6.07;;;32.60;1.00;;;;;;5025745;28;20477;-70
2023/06/17 10:03:20;;;;;;;8.37;6.00;;;32.40;1.00;;;;;;5025094;28;20509;-69
2023/06/17 10:05:54;;;;;;;9.13;5.97;;;32.00;1.00;;;;;;5024160;28;20490;-69
2023/06/17 10:08:23;;;;;;;8.97;5.80;;;31.70;1.00;;;;;;5027005;28;20568;-69
2023/06/17 10:10:50;;;;;;;12.03;5.80;;;31.40;1.00;;;;;;5024727;28;20455;-70
2023/06/17 10:13:20;;;;;;;11.43;6.60;;;31.10;1.00;;;;;;5020795;28;20542;-70
2023/06/17 10:15:49;;;;;;;7.60;5.50;;;30.90;1.00;;;;;;5023397;28;20467;-70
2023/06/17 10:18:18;;;;;;;8.73;5.20;;;31.00;1.00;;;;;;5028070;28;20459;-70
2023/06/17 10:20:46;;;;;;;12.47;5.33;;;31.20;1.00;;;;;;5025985;28;20999;-70
2023/06/17 10:23:13;;;;;;;9.33;6.10;;;31.50;1.00;;;;;;5030037;28;20998;-70
2023/06/17 10:25:41;;;;;;;10.23;6.50;;;31.60;1.00;;;;;;5025245;28;20982;-70
2023/06/17 10:28:08;;;;;;;9.10;5.80;;;31.60;1.00;;;;;;5023878;28;20529;-70
2023/06/17 10:30:37;;;;;;;10.83;6.30;;;31.60;1.00;;;;;;5023886;28;21751;-70
2023/06/17 10:33:05;;;;;;;9.03;5.97;;;31.50;1.00;;;;;;5029669;28;21427;-70
2023/06/17 10:35:40;;;;;;;10.50;5.87;;;31.30;1.00;;;;;;5020961;28;20460;-70
2023/06/17 10:38:08;;;;;;;10.37;6.47;;;31.20;1.00;;;;;;5026169;28;20818;-70
2023/06/17 10:40:40;;;;;;;11.10;5.70;;;31.10;1.00;;;;;;5028204;28;20459;-70
2023/06/17 10:43:19;;;;;;;7.67;5.60;;;30.90;1.00;;;;;;5025968;28;21088;-70
2023/06/17 10:45:51;;;;;;;9.57;5.60;;;30.60;1.00;;;;;;5026476;28;20465;-70
2023/06/17 10:48:22;;;;;;;10.90;5.80;;;30.30;1.00;;;;;;5028952;28;20486;-70
2023/06/17 10:50:53;;;;;;;11.93;7.00;;;30.10;1.00;;;;;;5028209;28;20470;-69
2023/06/17 10:53:31;;;;;;;9.67;6.50;;;29.80;1.00;;;;;;5029609;28;20496;-70
2023/06/17 10:55:58;;;;;;;10.27;5.50;;;29.60;1.00;;;;;;5028638;28;20485;-69
2023/06/17 10:58:32;;;;;;;10.33;6.03;;;29.50;1.00;;;;;;5025860;28;20457;-69
2023/06/17 11:01:03;;;;;;;11.90;5.70;;;29.50;1.00;;;;;;5027481;28;20466;-69
2023/06/17 11:03:31;;;;;;;7.70;6.10;;;29.60;1.00;;;;;;5023231;28;20486;-69
2023/06/17 11:05:59;;;;;;;9.50;6.07;;;29.70;1.00;;;;;;5022764;28;20471;-69
2023/06/17 11:08:26;;;;;;;12.03;6.13;;;29.80;1.00;;;;;;5027264;28;20486;-69
2023/06/17 11:10:53;;;;;;;10.30;6.13;;;29.90;1.00;;;;;;5022547;28;20471;-69
2023/06/17 11:13:22;;;;;;;10.53;6.70;;;30.00;1.00;;;;;;5024613;28;20855;-69
2023/06/17 11:15:55;;;;;;;8.20;6.17;;;30.00;1.00;;;;;;5031984;28;20845;-69
2023/06/17 11:18:22;;;;;;;9.77;5.80;;;29.90;1.00;;;;;;5024961;28;20491;-69
2023/06/17 11:20:50;;;;;;;8.87;5.80;;;29.90;1.00;;;;;;5022647;28;20546;-69
2023/06/17 11:23:18;;;;;;;8.60;5.37;;;29.70;1.00;;;;;;5017921;28;20478;-69
2023/06/17 11:25:45;;;;;;;7.73;5.60;;;29.60;1.00;;;;;;5021271;28;20455;-69
2023/06/17 11:28:12;;;;;;;7.90;5.50;;;29.40;1.00;;;;;;5027472;28;20490;-69
2023/06/17 11:30:40;;;;;;;9.17;5.37;;;29.30;1.00;;;;;;5015325;28;20470;-69
2023/06/17 11:33:06;;;;;;;10.50;5.50;;;29.20;1.00;;;;;;5021216;28;20572;-70
2023/06/17 11:35:33;;;;;;;10.10;6.70;;;29.10;1.00;;;;;;5021104;28;21078;-69
2023/06/17 11:38:02;;;;;;;7.70;5.73;;;29.20;1.00;;;;;;5024904;28;20463;-69
2023/06/17 11:40:29;;;;;;;8.87;6.30;;;29.20;1.00;;;;;;5024284;28;20487;-69
2023/06/17 11:42:57;;;;;;;8.77;6.13;;;29.30;1.00;;;;;;5027620;28;20998;-69
2023/06/17 11:45:24;;;;;;;9.67;5.10;;;29.30;1.00;;;;;;5031672;28;20466;-69
2023/06/17 11:47:51;;;;;;;11.07;5.27;;;29.30;1.00;;;;;;5027941;28;20537;-69
2023/06/17 11:50:18;;;;;;;7.80;5.30;;;29.30;1.00;;;;;;5029160;28;20882;-69
2023/06/17 11:52:53;;;;;;;9.53;5.93;;;29.30;1.00;;;;;;5026629;28;20986;-70
2023/06/17 11:55:29;;;;;;;8.73;6.00;;;29.40;1.00;;;;;;5028531;28;20991;-69
2023/06/17 11:57:56;;;;;;;7.60;5.20;;;29.50;1.00;;;;;;5027646;28;20541;-70
2023/06/17 12:00:23;;;;;;;7.73;5.67;;;29.60;1.00;;;;;;5024176;28;20548;-71
2023/06/17 12:02:50;;;;;;;8.50;5.20;;;29.60;1.00;;;;;;5021438;28;20478;-70
2023/06/17 12:05:17;;;;;;;11.13;5.50;;;29.60;1.00;;;;;;5019940;28;20470;-70
2023/06/17 12:07:46;;;;;;;10.83;5.80;;;29.60;1.00;;;;;;5026188;28;20475;-70
2023/06/17 12:10:13;;;;;;;8.27;5.00;;;29.60;1.00;;;;;;5027787;28;20463;-70
2023/06/17 12:12:41;;;;;;;6.80;4.97;;;29.60;1.00;;;;;;5023389;28;20988;-70
2023/06/17 12:15:09;;;;;;;10.60;5.93;;;29.70;1.00;;;;;;5029803;28;20470;-70
2023/06/17 12:17:39;;;;;;;7.70;5.00;;;29.80;1.00;;;;;;5026310;28;20467;-70
2023/06/17 12:20:07;;;;;;;10.10;5.83;;;29.90;1.00;;;;;;5026022;28;20463;-70
2023/06/17 12:22:33;;;;;;;7.47;5.67;;;29.80;1.00;;;;;;5020457;28;20482;-70
2023/06/17 12:25:02;;;;;;;9.83;5.90;;;29.90;1.00;;;;;;5018240;28;20474;-70
2023/06/17 12:27:29;;;;;;;7.67;5.43;;;29.90;1.00;;;;;;5016664;28;21125;-69
2023/06/17 12:30:00;;;;;;;8.50;6.03;;;29.90;1.00;;;;;;5016515;28;20800;-69
2023/06/17 12:32:27;;;;;;;7.90;5.47;;;29.90;1.00;;;;;;5022101;28;20529;-71
2023/06/17 12:34:54;;;;;;;7.53;5.90;;;29.90;1.00;;;;;;5019566;28;20468;-69
2023/06/17 12:37:23;;;;;;;8.50;5.73;;;29.90;1.00;;;;;;5018776;28;20462;-70
2023/06/17 12:39:52;;;;;;;9.07;5.63;;;29.80;1.00;;;;;;5025029;28;20455;-70
2023/06/17 12:42:19;;;;;;;9.73;6.83;;;29.70;1.00;;;;;;5023483;28;21068;-70
2023/06/17 12:44:46;;;;;;;9.33;5.90;;;29.70;1.00;;;;;;5022677;28;20463;-69
2023/06/17 12:47:14;;;;;;;8.83;5.97;;;29.60;1.00;;;;;;5022124;28;20507;-69